Time;durP1;ratioP1;P1;durP2;ratioP2;P2;SDS_P1;SDS_P2;PMS_P1;PMS_P2;Temp;Humidity;BMP_temperature;BMP_pressure;BME280_temperature;BME280_humidity;BME280_pressure;Samples;Min_cycle;Max_cycle;Signal;HPM_P1;HPM_P2
2022/04/30 00:02:16;;;;;;;11.30;10.20;;;12.80;1.00;;;;;;7363831;19;20082;-65
2022/04/30 00:04:48;;;;;;;13.27;10.98;;;12.80;1.00;;;;;;7383610;19;20035;-64
2022/04/30 00:07:21;;;;;;;16.80;11.52;;;12.70;1.00;;;;;;7362448;19;20105;-64
2022/04/30 00:09:51;;;;;;;13.43;11.25;;;12.90;1.00;;;;;;7352291;19;20015;-64
2022/04/30 00:12:22;;;;;;;14.55;11.75;;;12.90;1.00;;;;;;7362206;19;20015;-64
2022/04/30 00:14:52;;;;;;;15.13;11.15;;;12.90;1.00;;;;;;7361830;19;20081;-64
2022/04/30 00:17:24;;;;;;;12.88;11.45;;;12.80;1.00;;;;;;7363729;19;20085;-64
2022/04/30 00:19:54;;;;;;;13.25;11.13;;;12.70;1.00;;;;;;7354409;19;20074;-64
2022/04/30 00:22:24;;;;;;;13.35;11.48;;;12.60;1.00;;;;;;7384202;19;20070;-63
2022/04/30 00:24:54;;;;;;;14.68;11.65;;;12.60;1.00;;;;;;7360298;19;20013;-64
2022/04/30 00:27:24;;;;;;;14.27;11.10;;;12.60;1.00;;;;;;7363921;19;20010;-63
2022/04/30 00:29:54;;;;;;;12.32;11.02;;;12.50;1.00;;;;;;7361662;19;20336;-63
2022/04/30 00:32:27;;;;;;;12.10;10.68;;;12.40;1.00;;;;;;7365402;19;20017;-63
2022/04/30 00:34:57;;;;;;;11.75;10.45;;;12.40;1.00;;;;;;7364936;19;20358;-64
2022/04/30 00:37:26;;;;;;;12.30;10.43;;;12.30;1.00;;;;;;7389661;19;20026;-63
2022/04/30 00:39:56;;;;;;;11.75;9.88;;;12.30;1.00;;;;;;7359052;19;20013;-63
2022/04/30 00:42:26;;;;;;;10.48;9.40;;;12.30;1.00;;;;;;7368520;19;20007;-64
2022/04/30 00:44:56;;;;;;;10.30;9.30;;;12.30;1.00;;;;;;7366375;19;20022;-64
2022/04/30 00:47:29;;;;;;;12.55;9.07;;;12.40;1.00;;;;;;7367916;19;20021;-64
2022/04/30 00:49:58;;;;;;;12.95;8.95;;;12.30;1.00;;;;;;7360916;19;20372;-63
2022/04/30 00:52:28;;;;;;;12.55;9.65;;;12.30;1.00;;;;;;7389296;19;20014;-64
2022/04/30 00:55:05;;;;;;;10.80;9.13;;;12.40;1.00;;;;;;7365439;19;20014;-64
2022/04/30 00:57:38;;;;;;;11.93;9.05;;;12.30;1.00;;;;;;7357955;19;20096;-64
2022/04/30 01:00:09;;;;;;;11.77;9.13;;;12.20;1.00;;;;;;7346493;19;20493;-64
2022/04/30 01:02:43;;;;;;;13.30;9.18;;;12.10;1.00;;;;;;7354172;19;20116;-64
2022/04/30 01:05:14;;;;;;;11.07;9.05;;;12.10;1.00;;;;;;7350690;19;20126;-64
2022/04/30 01:07:44;;;;;;;13.05;10.20;;;12.00;1.00;;;;;;7382689;19;20044;-64
2022/04/30 01:10:14;;;;;;;12.63;10.10;;;12.00;1.00;;;;;;7360195;19;20014;-63
2022/04/30 01:12:44;;;;;;;13.27;10.63;;;11.90;1.00;;;;;;7366050;19;20701;-63
2022/04/30 01:15:14;;;;;;;15.98;10.68;;;11.90;1.00;;;;;;7366285;19;20021;-64
2022/04/30 01:17:47;;;;;;;13.65;9.95;;;11.90;1.00;;;;;;7365523;19;20013;-63
2022/04/30 01:20:17;;;;;;;15.07;10.80;;;11.90;1.00;;;;;;7360291;19;20014;-63
2022/04/30 01:23:14;;;;;;;16.10;11.13;;;11.90;1.00;;;;;;7389864;19;20342;-63
2022/04/30 01:25:44;;;;;;;14.93;11.60;;;11.90;1.00;;;;;;7262454;19;2004392;-63
2022/04/30 01:28:15;;;;;;;16.77;11.48;;;11.80;1.00;;;;;;7382841;19;20364;-63
2022/04/30 01:30:45;;;;;;;20.20;12.13;;;11.80;1.00;;;;;;7366050;19;20086;-64
2022/04/30 01:38:52;;;;;;;16.45;12.93;;;11.80;1.00;;;;;;7355438;19;20014;-63
2022/04/30 01:41:22;;;;;;;20.42;12.60;;;11.80;1.50;;;;;;7367448;19;20010;-64
2022/04/30 01:43:52;;;;;;;18.70;14.10;;;11.70;2.00;;;;;;7365624;19;20034;-63
2022/04/30 01:46:23;;;;;;;17.63;13.57;;;11.70;2.70;;;;;;7388507;19;20038;-64
2022/04/30 01:48:53;;;;;;;18.45;13.57;;;11.70;3.50;;;;;;7357240;19;20006;-63
2022/04/30 01:51:23;;;;;;;19.55;14.07;;;11.70;3.90;;;;;;7364948;19;20089;-64
2022/04/30 01:53:56;;;;;;;21.10;14.05;;;11.70;4.30;;;;;;7364424;19;20089;-65
2022/04/30 01:56:26;;;;;;;21.38;13.60;;;11.60;5.10;;;;;;7367754;19;20404;-64
2022/04/30 01:58:56;;;;;;;21.55;14.93;;;11.70;5.30;;;;;;7358205;19;20492;-64
2022/04/30 02:01:26;;;;;;;22.40;14.77;;;11.60;6.20;;;;;;7386340;19;20488;-65
2022/04/30 02:03:56;;;;;;;21.65;14.70;;;11.60;6.90;;;;;;7364186;19;20026;-64
2022/04/30 02:06:27;;;;;;;26.80;15.60;;;11.60;7.40;;;;;;7365838;19;20014;-64
2022/04/30 02:08:59;;;;;;;22.65;15.75;;;11.60;8.00;;;;;;7357840;19;20571;-64
2022/04/30 02:11:30;;;;;;;23.85;15.55;;;11.60;8.80;;;;;;7364015;19;20078;-64
2022/04/30 02:14:03;;;;;;;21.88;15.40;;;11.50;9.30;;;;;;7365045;19;20030;-64
2022/04/30 02:16:34;;;;;;;29.05;16.77;;;11.50;9.80;;;;;;7388458;19;20010;-64
2022/04/30 02:19:05;;;;;;;22.98;16.13;;;11.50;10.40;;;;;;7357425;19;20013;-64
2022/04/30 02:21:36;;;;;;;23.23;15.55;;;11.50;11.10;;;;;;7365776;19;20040;-64
2022/04/30 02:24:10;;;;;;;27.73;16.73;;;11.50;11.80;;;;;;7365115;19;20064;-64
2022/04/30 02:26:40;;;;;;;23.58;16.58;;;11.40;12.40;;;;;;7365146;19;20022;-64
2022/04/30 02:29:10;;;;;;;31.17;16.75;;;11.40;12.50;;;;;;7357150;19;20026;-64
2022/04/30 02:31:40;;;;;;;24.58;16.98;;;11.40;12.40;;;;;;7388178;19;20011;-64
2022/04/30 02:34:10;;;;;;;26.83;16.95;;;11.50;12.50;;;;;;7363772;19;20034;-64
2022/04/30 02:36:40;;;;;;;28.00;16.15;;;11.50;12.60;;;;;;7364613;19;20189;-64
2022/04/30 02:39:13;;;;;;;28.58;17.27;;;11.50;13.00;;;;;;7357259;19;20038;-64
2022/04/30 02:41:43;;;;;;;27.20;17.42;;;11.50;12.70;;;;;;7364788;19;20021;-64
2022/04/30 02:44:12;;;;;;;28.00;16.90;;;11.40;13.40;;;;;;7363558;19;20019;-64
2022/04/30 02:46:42;;;;;;;30.42;17.73;;;11.50;13.60;;;;;;7387218;19;20031;-63
2022/04/30 02:49:12;;;;;;;27.52;16.90;;;11.40;14.10;;;;;;7354149;19;20015;-63
2022/04/30 02:51:42;;;;;;;28.33;17.23;;;11.40;14.80;;;;;;7364040;19;20477;-63
2022/04/30 02:54:15;;;;;;;27.00;17.85;;;11.40;15.40;;;;;;7362935;19;20038;-63
2022/04/30 02:56:45;;;;;;;25.95;17.30;;;11.30;15.50;;;;;;7364934;19;20793;-63
2022/04/30 03:01:57;;;;;;;25.80;17.17;;;11.20;16.70;;;;;;7386568;19;20038;-64
2022/04/30 03:04:27;;;;;;;24.48;16.88;;;11.20;17.30;;;;;;7358109;19;20019;-64
2022/04/30 03:06:57;;;;;;;27.23;18.05;;;11.20;17.70;;;;;;7361747;19;20014;-64
2022/04/30 03:09:30;;;;;;;31.60;19.48;;;11.10;18.90;;;;;;7354308;19;20021;-64
2022/04/30 03:12:00;;;;;;;31.05;19.83;;;11.10;19.80;;;;;;7363068;19;20617;-64
2022/04/30 03:14:30;;;;;;;28.63;19.17;;;11.10;20.30;;;;;;7361048;19;20361;-64
2022/04/30 03:22:25;;;;;;;31.95;20.25;;;11.00;22.80;;;;;;7362126;19;20084;-64
2022/04/30 03:24:57;;;;;;;37.22;21.15;;;11.00;23.60;;;;;;7360763;19;20011;-64
2022/04/30 03:27:27;;;;;;;33.50;21.85;;;10.90;24.50;;;;;;7360333;19;20019;-64
2022/04/30 03:29:57;;;;;;;35.22;22.85;;;10.90;24.80;;;;;;7346724;19;20794;-64
2022/04/30 03:32:27;;;;;;;38.90;20.45;;;10.90;25.20;;;;;;7362698;19;20078;-63
2022/04/30 03:34:57;;;;;;;41.42;22.45;;;10.90;25.80;;;;;;7382589;19;20016;-63
2022/04/30 03:37:27;;;;;;;35.40;22.17;;;10.90;26.10;;;;;;7361657;19;20015;-64
2022/04/30 03:40:04;;;;;;;38.05;23.35;;;10.90;26.30;;;;;;7352755;19;20073;-65
2022/04/30 03:42:34;;;;;;;38.22;23.05;;;10.90;26.30;;;;;;7363130;19;20471;-64
2022/04/30 03:45:05;;;;;;;37.50;23.50;;;10.90;27.30;;;;;;7361846;19;20065;-64
2022/04/30 03:47:37;;;;;;;39.63;22.75;;;10.80;27.80;;;;;;7363808;19;20010;-63
2022/04/30 03:50:08;;;;;;;36.85;22.95;;;10.80;27.70;;;;;;7373919;19;20730;-65
2022/04/30 03:52:38;;;;;;;33.30;22.50;;;10.80;28.20;;;;;;7362846;19;20031;-64
2022/04/30 03:55:11;;;;;;;41.60;23.73;;;10.80;28.60;;;;;;7358785;19;20024;-65
2022/04/30 03:57:41;;;;;;;34.95;23.20;;;10.70;29.20;;;;;;7359976;19;20554;-64
2022/04/30 04:00:14;;;;;;;36.67;23.55;;;10.70;29.40;;;;;;7355034;19;20018;-64
2022/04/30 04:02:45;;;;;;;36.00;23.30;;;10.70;29.60;;;;;;7368684;19;20010;-62
2022/04/30 04:05:17;;;;;;;39.03;23.83;;;10.70;30.10;;;;;;7377032;19;20019;-64
2022/04/30 04:07:47;;;;;;;41.80;22.85;;;10.70;30.00;;;;;;7389049;19;20018;-63
2022/04/30 04:10:20;;;;;;;39.50;24.77;;;10.70;30.70;;;;;;7359254;19;20021;-63
2022/04/30 04:12:49;;;;;;;40.03;25.05;;;10.70;32.40;;;;;;7368909;19;20290;-64
2022/04/30 04:18:02;;;;;;;43.60;25.98;;;10.70;31.20;;;;;;7364871;19;20064;-64
2022/04/30 04:20:32;;;;;;;43.47;24.67;;;10.70;32.30;;;;;;7365298;19;20025;-64
2022/04/30 04:23:02;;;;;;;43.75;26.77;;;10.60;33.70;;;;;;7390777;19;20014;-64
2022/04/30 04:28:17;;;;;;;41.60;25.25;;;10.40;37.30;;;;;;7363406;19;20504;-63
2022/04/30 04:30:47;;;;;;;46.03;28.15;;;10.30;38.90;;;;;;7361854;19;20018;-63
2022/04/30 04:33:17;;;;;;;46.85;27.45;;;10.40;40.20;;;;;;7367605;19;20010;-64
2022/04/30 04:35:47;;;;;;;49.17;28.90;;;10.40;40.80;;;;;;7366561;19;20011;-64
2022/04/30 04:38:17;;;;;;;49.10;27.85;;;10.40;41.40;;;;;;7364482;19;20011;-65
2022/04/30 04:40:49;;;;;;;48.28;29.13;;;10.40;42.00;;;;;;7386512;19;20014;-64
2022/04/30 04:43:19;;;;;;;44.40;28.23;;;10.50;43.00;;;;;;7367954;19;20094;-63
2022/04/30 04:45:49;;;;;;;50.10;29.77;;;10.50;42.20;;;;;;7367183;19;20017;-64
2022/04/30 04:48:19;;;;;;;47.97;28.15;;;10.40;42.70;;;;;;7362366;19;20017;-63
2022/04/30 04:50:51;;;;;;;46.10;29.50;;;10.30;42.40;;;;;;7360550;19;20010;-64
2022/04/30 04:53:21;;;;;;;46.17;28.45;;;10.50;44.40;;;;;;7368880;19;20010;-65
2022/04/30 04:55:53;;;;;;;44.58;28.55;;;10.50;44.70;;;;;;7387585;19;20014;-64
2022/04/30 04:58:23;;;;;;;49.20;28.85;;;10.60;44.30;;;;;;7363539;19;20407;-64
2022/04/30 05:00:53;;;;;;;46.38;27.13;;;10.70;44.80;;;;;;7365228;19;20015;-63
2022/04/30 05:03:23;;;;;;;46.15;27.92;;;10.40;40.60;;;;;;7367388;19;20086;-63
2022/04/30 05:05:53;;;;;;;44.03;26.52;;;10.50;44.90;;;;;;7366644;19;20097;-64
2022/04/30 05:08:23;;;;;;;44.30;26.80;;;10.40;43.00;;;;;;7363360;19;20018;-64
2022/04/30 05:10:55;;;;;;;43.25;26.55;;;10.40;44.60;;;;;;7384986;19;20018;-64
2022/04/30 05:13:25;;;;;;;42.03;26.48;;;10.40;45.70;;;;;;7367145;19;20017;-64
2022/04/30 05:15:55;;;;;;;44.40;27.00;;;10.40;45.70;;;;;;7366372;19;20402;-64
2022/04/30 05:18:25;;;;;;;42.85;27.35;;;10.30;45.40;;;;;;7362214;19;20017;-64
2022/04/30 05:20:55;;;;;;;44.63;27.13;;;10.30;45.70;;;;;;7364768;19;20074;-64
2022/04/30 05:23:24;;;;;;;47.05;28.05;;;10.20;44.80;;;;;;7367963;19;20473;-64
2022/04/30 05:25:57;;;;;;;40.90;26.85;;;10.30;46.70;;;;;;7386711;19;20007;-64
2022/04/30 05:28:27;;;;;;;47.90;26.88;;;10.50;46.40;;;;;;7366332;19;20816;-64
2022/04/30 05:30:57;;;;;;;41.97;25.85;;;10.40;45.80;;;;;;7362394;19;20344;-64
2022/04/30 05:33:28;;;;;;;44.03;26.63;;;10.30;45.90;;;;;;7367744;19;20014;-64
2022/04/30 05:35:59;;;;;;;44.22;26.33;;;10.30;47.30;;;;;;7365944;19;20481;-64
2022/04/30 05:38:29;;;;;;;41.15;27.25;;;10.30;47.10;;;;;;7364920;19;20019;-64
2022/04/30 05:41:02;;;;;;;46.22;26.65;;;10.30;46.40;;;;;;7383971;19;20053;-64
2022/04/30 05:43:32;;;;;;;40.77;25.20;;;10.40;47.30;;;;;;7368567;19;20082;-63
2022/04/30 05:46:02;;;;;;;45.63;26.13;;;10.50;46.70;;;;;;7365062;19;20021;-64
2022/04/30 05:48:32;;;;;;;47.72;28.33;;;10.40;46.20;;;;;;7363038;19;20011;-65
2022/04/30 05:51:04;;;;;;;38.95;26.35;;;10.60;47.20;;;;;;7361339;19;20090;-65
2022/04/30 05:53:34;;;;;;;45.20;27.40;;;10.60;47.20;;;;;;7366868;19;20030;-65
2022/04/30 05:56:07;;;;;;;43.40;26.30;;;10.60;47.70;;;;;;7388006;19;20769;-65
2022/04/30 05:58:37;;;;;;;39.30;25.58;;;10.70;47.90;;;;;;7363084;19;20010;-65
2022/04/30 06:01:08;;;;;;;44.15;27.35;;;10.70;46.40;;;;;;7361774;19;20553;-65
2022/04/30 06:03:40;;;;;;;39.42;25.83;;;10.90;47.50;;;;;;7364896;19;20010;-66
2022/04/30 06:06:10;;;;;;;41.88;26.52;;;10.90;46.20;;;;;;7366294;19;20487;-63
2022/04/30 06:08:40;;;;;;;43.38;26.88;;;10.90;45.60;;;;;;7362325;19;20021;-66
2022/04/30 06:11:12;;;;;;;41.47;26.77;;;10.90;46.20;;;;;;7384545;19;20400;-64
2022/04/30 06:13:42;;;;;;;41.75;25.52;;;11.00;45.90;;;;;;7365294;19;20018;-65
2022/04/30 06:16:12;;;;;;;40.83;25.83;;;10.80;44.30;;;;;;7365021;19;20021;-65
2022/04/30 06:18:42;;;;;;;42.05;24.98;;;10.90;46.60;;;;;;7360793;19;20027;-63
2022/04/30 06:21:32;;;;;;;40.45;25.83;;;10.80;45.60;;;;;;7365183;19;20015;-64
2022/04/30 06:24:02;;;;;;;39.10;26.00;;;10.80;46.30;;;;;;7365668;19;20014;-65
2022/04/30 06:26:38;;;;;;;41.42;24.95;;;10.90;47.50;;;;;;7365514;19;20010;-64
2022/04/30 06:29:09;;;;;;;39.58;24.30;;;10.60;45.00;;;;;;7379056;19;20490;-64
2022/04/30 06:31:39;;;;;;;37.42;25.50;;;10.40;47.90;;;;;;7362756;19;20030;-64
2022/04/30 06:34:09;;;;;;;41.08;23.98;;;10.70;50.00;;;;;;7364027;19;20007;-65
2022/04/30 06:36:39;;;;;;;38.40;24.67;;;10.30;48.30;;;;;;7365818;19;20013;-64
2022/04/30 06:39:09;;;;;;;36.67;24.15;;;10.40;48.90;;;;;;7357273;19;20010;-64
2022/04/30 06:41:41;;;;;;;38.63;25.52;;;10.30;49.70;;;;;;7363921;19;20014;-64
2022/04/30 06:44:11;;;;;;;38.55;25.98;;;10.50;50.80;;;;;;7384260;19;20010;-64
2022/04/30 06:46:42;;;;;;;38.90;25.40;;;10.40;51.10;;;;;;7364567;19;19999;-64
2022/04/30 06:49:13;;;;;;;39.83;27.17;;;10.20;49.70;;;;;;7357915;19;20478;-65
2022/04/30 06:51:42;;;;;;;39.72;25.52;;;10.50;51.70;;;;;;7361992;19;20059;-65
2022/04/30 06:57:11;;;;;;;42.25;27.42;;;10.50;51.70;;;;;;7364677;19;20031;-65
2022/04/30 06:59:45;;;;;;;40.17;25.30;;;10.70;51.80;;;;;;7357003;19;20021;-65
2022/04/30 07:02:17;;;;;;;37.13;24.00;;;10.60;50.00;;;;;;7378097;19;20018;-65
2022/04/30 07:04:50;;;;;;;35.55;25.10;;;10.60;50.70;;;;;;7384941;19;20015;-64
2022/04/30 07:07:20;;;;;;;37.38;24.27;;;10.80;52.40;;;;;;7364038;19;20014;-65
2022/04/30 07:09:50;;;;;;;37.10;25.38;;;10.60;49.10;;;;;;7356829;19;20530;-64
2022/04/30 07:12:23;;;;;;;41.58;23.58;;;10.50;51.10;;;;;;7361256;19;20049;-64
2022/04/30 07:14:53;;;;;;;37.83;24.50;;;10.60;52.00;;;;;;7363037;19;20014;-65
2022/04/30 07:17:23;;;;;;;32.70;22.13;;;10.70;50.10;;;;;;7363081;19;20010;-65
2022/04/30 07:19:53;;;;;;;35.10;24.27;;;10.70;50.10;;;;;;7378226;19;20014;-64
2022/04/30 07:22:23;;;;;;;38.13;23.60;;;10.70;49.40;;;;;;7361747;19;20014;-64
2022/04/30 07:24:55;;;;;;;34.78;23.10;;;10.70;50.00;;;;;;7361950;19;20494;-64
2022/04/30 07:27:27;;;;;;;35.15;23.80;;;10.80;50.80;;;;;;7362614;19;20094;-65
2022/04/30 07:29:57;;;;;;;33.03;22.35;;;10.80;51.00;;;;;;7357082;19;20582;-64
2022/04/30 07:32:27;;;;;;;33.75;21.85;;;10.70;50.10;;;;;;7360392;19;20014;-65
2022/04/30 07:34:57;;;;;;;33.75;22.50;;;10.90;51.00;;;;;;7383833;19;20082;-65
2022/04/30 07:37:27;;;;;;;35.08;22.95;;;10.90;50.20;;;;;;7361684;19;20022;-65
2022/04/30 07:39:57;;;;;;;29.10;20.83;;;10.90;51.30;;;;;;7352899;19;20010;-64
2022/04/30 07:42:30;;;;;;;33.10;21.80;;;10.80;48.90;;;;;;7361874;19;20102;-64
2022/04/30 07:45:00;;;;;;;27.63;20.40;;;11.00;49.90;;;;;;7362037;19;20014;-64
2022/04/30 07:47:30;;;;;;;26.52;18.95;;;11.00;46.90;;;;;;7362289;19;20014;-64
2022/04/30 07:50:00;;;;;;;31.33;19.75;;;10.60;47.00;;;;;;7377684;19;20022;-64
2022/04/30 07:52:29;;;;;;;31.25;20.75;;;10.70;50.00;;;;;;7359992;19;20015;-64
2022/04/30 07:54:59;;;;;;;29.30;20.80;;;10.70;49.30;;;;;;7360740;19;20010;-64
2022/04/30 07:57:32;;;;;;;28.75;20.17;;;10.70;48.30;;;;;;7362635;19;20094;-64
2022/04/30 08:00:02;;;;;;;29.75;21.05;;;10.90;48.50;;;;;;7355218;19;20082;-64
2022/04/30 08:02:32;;;;;;;25.52;18.02;;;11.10;50.50;;;;;;7360640;19;20070;-64
2022/04/30 08:05:03;;;;;;;28.23;20.52;;;10.90;46.70;;;;;;7382550;19;20587;-64
2022/04/30 08:07:33;;;;;;;29.25;21.30;;;11.00;50.30;;;;;;7362634;19;20006;-64
2022/04/30 08:10:03;;;;;;;26.00;19.58;;;11.10;48.20;;;;;;7354077;19;20094;-64
2022/04/30 08:12:36;;;;;;;28.10;19.92;;;11.20;45.40;;;;;;7359873;19;20049;-64
2022/04/30 08:15:07;;;;;;;27.13;18.83;;;11.00;44.20;;;;;;7361369;19;20046;-64
2022/04/30 08:17:38;;;;;;;26.50;18.85;;;10.70;47.60;;;;;;7361495;19;20022;-64
2022/04/30 08:20:10;;;;;;;28.13;20.70;;;10.80;50.10;;;;;;7377808;19;20094;-63
2022/04/30 08:22:41;;;;;;;28.02;20.58;;;10.80;50.10;;;;;;7361866;19;20078;-64
2022/04/30 08:25:12;;;;;;;29.30;19.52;;;10.80;49.40;;;;;;7358903;19;20469;-64
2022/04/30 08:27:45;;;;;;;26.13;19.25;;;10.50;49.90;;;;;;7360435;19;20023;-65
2022/04/30 08:30:15;;;;;;;29.30;20.77;;;10.50;49.50;;;;;;7356554;19;20010;-64
2022/04/30 08:32:45;;;;;;;28.85;21.80;;;10.60;50.00;;;;;;7360421;19;20010;-65
2022/04/30 08:35:14;;;;;;;29.42;20.63;;;10.80;51.90;;;;;;7375185;19;20017;-66
2022/04/30 08:38:04;;;;;;;30.60;21.75;;;10.90;50.20;;;;;;7380887;19;20011;-65
2022/04/30 08:40:36;;;;;;;28.83;19.65;;;11.10;50.50;;;;;;7355371;19;20052;-65
2022/04/30 08:43:13;;;;;;;28.20;20.15;;;10.90;46.20;;;;;;7361156;19;20114;-65
2022/04/30 08:45:45;;;;;;;26.60;19.77;;;10.70;46.00;;;;;;7359526;19;20119;-63
2022/04/30 08:48:17;;;;;;;26.70;20.70;;;10.70;48.90;;;;;;7359330;19;20036;-63
2022/04/30 08:50:49;;;;;;;31.50;20.30;;;10.70;50.10;;;;;;7362645;19;20011;-63
2022/04/30 08:53:19;;;;;;;31.52;20.65;;;10.60;47.80;;;;;;7365875;19;20018;-63
2022/04/30 08:55:49;;;;;;;28.50;20.63;;;10.60;50.90;;;;;;7386559;19;20094;-63
2022/04/30 08:58:21;;;;;;;29.35;20.25;;;10.80;50.20;;;;;;7364148;19;20013;-65
2022/04/30 09:00:51;;;;;;;27.42;20.63;;;10.80;50.10;;;;;;7361188;19;20090;-65
2022/04/30 09:03:23;;;;;;;31.08;22.23;;;11.00;50.00;;;;;;7368543;19;20017;-64
2022/04/30 09:05:53;;;;;;;27.33;20.13;;;11.20;51.70;;;;;;7365482;19;20094;-64
2022/04/30 09:08:22;;;;;;;27.83;18.75;;;10.90;47.80;;;;;;7364349;19;20021;-64
2022/04/30 09:10:52;;;;;;;24.92;18.25;;;11.00;47.60;;;;;;7383002;19;20090;-64
2022/04/30 09:13:25;;;;;;;24.40;18.52;;;11.00;48.90;;;;;;7363905;19;20070;-65
2022/04/30 09:15:56;;;;;;;21.40;15.75;;;11.20;47.10;;;;;;7365483;19;20018;-65
2022/04/30 09:18:26;;;;;;;23.13;16.30;;;10.80;45.70;;;;;;7363364;19;20010;-65
2022/04/30 09:20:57;;;;;;;23.27;17.15;;;10.80;47.80;;;;;;7361190;19;20003;-65
2022/04/30 09:23:27;;;;;;;23.42;17.10;;;10.70;46.70;;;;;;7365866;19;20017;-64
2022/04/30 09:25:59;;;;;;;18.25;14.82;;;11.00;48.50;;;;;;7385705;19;20090;-64
2022/04/30 09:28:34;;;;;;;21.50;14.88;;;10.90;48.50;;;;;;7362818;19;20019;-64
2022/04/30 09:31:11;;;;;;;18.88;14.02;;;10.80;45.60;;;;;;7359560;19;20024;-64
2022/04/30 09:33:57;;;;;;;16.13;11.75;;;10.90;42.50;;;;;;7364550;19;20018;-65
2022/04/30 09:39:15;;;;;;;13.80;11.88;;;10.80;37.50;;;;;;7357603;19;20010;-64
2022/04/30 09:41:46;;;;;;;16.10;13.23;;;10.80;40.60;;;;;;7365808;19;20093;-64
2022/04/30 09:44:18;;;;;;;15.93;12.60;;;10.90;42.80;;;;;;7366965;19;20094;-64
2022/04/30 09:46:48;;;;;;;17.83;13.18;;;10.80;43.30;;;;;;7386591;19;20014;-65
2022/04/30 09:54:45;;;;;;;12.18;10.52;;;10.70;40.00;;;;;;7362021;19;20006;-65
2022/04/30 09:57:17;;;;;;;10.60;9.13;;;10.80;41.20;;;;;;7365219;19;20047;-64
2022/04/30 09:59:56;;;;;;;12.30;9.68;;;10.70;37.00;;;;;;7357018;19;20015;-64
2022/04/30 10:02:29;;;;;;;13.70;10.02;;;10.80;39.30;;;;;;7363550;19;20042;-65
2022/04/30 10:04:59;;;;;;;14.25;11.02;;;10.80;40.70;;;;;;7383864;19;20007;-65
2022/04/30 10:07:33;;;;;;;13.50;11.05;;;10.70;42.50;;;;;;7363226;19;20014;-66
2022/04/30 10:10:11;;;;;;;13.68;10.52;;;10.80;41.10;;;;;;7356782;19;20020;-66
2022/04/30 10:12:48;;;;;;;14.63;10.90;;;10.60;40.40;;;;;;7364279;19;20018;-65
2022/04/30 10:15:27;;;;;;;12.35;9.00;;;10.70;41.30;;;;;;7363487;19;20018;-65
2022/04/30 10:18:00;;;;;;;13.13;8.38;;;10.70;37.80;;;;;;7359716;19;20026;-68
2022/04/30 10:20:34;;;;;;;9.63;8.60;;;10.60;38.80;;;;;;7359144;19;20025;-64
2022/04/30 10:23:06;;;;;;;12.68;9.68;;;10.60;39.30;;;;;;7383941;19;20011;-64
2022/04/30 10:25:38;;;;;;;10.82;8.25;;;10.40;40.80;;;;;;7361349;19;20567;-65
2022/04/30 10:28:21;;;;;;;11.73;9.60;;;10.40;40.70;;;;;;7358286;19;20088;-64
2022/04/30 10:31:05;;;;;;;10.50;8.38;;;10.50;41.10;;;;;;7358213;19;20076;-64
2022/04/30 10:33:36;;;;;;;13.40;9.82;;;10.60;39.70;;;;;;7361796;19;20011;-64
2022/04/30 10:36:07;;;;;;;9.10;8.10;;;10.70;41.70;;;;;;7364184;19;20057;-64
2022/04/30 10:38:38;;;;;;;11.07;8.57;;;10.50;37.90;;;;;;7360713;19;20021;-65
2022/04/30 10:41:11;;;;;;;9.25;7.65;;;10.50;42.70;;;;;;7383137;19;20018;-64
2022/04/30 10:43:43;;;;;;;9.50;7.60;;;10.40;37.40;;;;;;7363792;19;20003;-64
2022/04/30 10:46:25;;;;;;;10.63;8.48;;;10.50;41.10;;;;;;7364339;19;20007;-65
2022/04/30 10:48:55;;;;;;;8.98;8.05;;;10.60;42.90;;;;;;7358227;19;20019;-65
2022/04/30 10:51:47;;;;;;;;;;;10.50;42.50;;;;;;7362054;19;20002;-66
2022/04/30 10:54:18;;;;;;;9.63;8.30;;;10.70;45.20;;;;;;7363076;19;19907;-65
2022/04/30 10:57:02;;;;;;;10.40;7.78;;;10.50;44.80;;;;;;7363559;19;20006;-64
2022/04/30 10:59:32;;;;;;;11.07;8.43;;;10.40;44.20;;;;;;7355852;19;20049;-64
2022/04/30 11:02:04;;;;;;;9.60;7.97;;;10.50;47.10;;;;;;7385331;19;20010;-64
2022/04/30 11:04:34;;;;;;;7.95;6.53;;;10.40;43.80;;;;;;7364469;19;20056;-63
2022/04/30 11:07:05;;;;;;;7.30;6.07;;;10.50;43.50;;;;;;7361803;19;20022;-65
2022/04/30 11:09:44;;;;;;;7.22;6.13;;;10.40;39.60;;;;;;7354648;19;20014;-64
2022/04/30 11:12:16;;;;;;;7.72;5.90;;;10.50;39.30;;;;;;7361536;19;20010;-64
2022/04/30 11:14:50;;;;;;;7.72;6.10;;;10.60;40.10;;;;;;7362579;19;20010;-65
2022/04/30 11:17:23;;;;;;;7.93;6.03;;;10.60;37.50;;;;;;7363472;19;20025;-66
2022/04/30 11:19:55;;;;;;;7.15;6.45;;;10.70;39.20;;;;;;7376720;19;20081;-65
2022/04/30 11:22:25;;;;;;;6.78;5.97;;;10.70;36.00;;;;;;7362195;19;20021;-65
2022/04/30 11:24:59;;;;;;;8.35;6.35;;;10.70;37.70;;;;;;7360792;19;20006;-65
2022/04/30 11:27:33;;;;;;;6.72;6.10;;;10.60;38.10;;;;;;7362891;19;20086;-65
2022/04/30 11:30:08;;;;;;;7.65;6.50;;;10.80;39.90;;;;;;7355052;19;20027;-65
2022/04/30 11:32:52;;;;;;;7.32;6.53;;;10.50;39.00;;;;;;7361343;19;20025;-66
2022/04/30 11:35:22;;;;;;;7.35;6.63;;;10.70;42.10;;;;;;7361859;19;20021;-64
2022/04/30 11:37:52;;;;;;;9.55;7.50;;;10.60;41.80;;;;;;7381590;19;20357;-65
2022/04/30 11:40:24;;;;;;;7.43;6.65;;;10.80;41.70;;;;;;7356927;19;20010;-64
2022/04/30 11:42:58;;;;;;;8.60;7.45;;;10.90;41.80;;;;;;7361940;19;20890;-64
2022/04/30 11:45:29;;;;;;;7.35;6.55;;;11.00;40.50;;;;;;7362577;19;20549;-65
2022/04/30 11:48:03;;;;;;;7.25;6.53;;;11.10;39.20;;;;;;7359608;19;20010;-64
2022/04/30 11:50:33;;;;;;;8.35;5.97;;;11.10;39.10;;;;;;7358021;19;20066;-65
2022/04/30 11:53:04;;;;;;;7.45;6.20;;;11.10;35.80;;;;;;7383875;19;20010;-65
2022/04/30 11:55:34;;;;;;;6.97;6.28;;;11.40;36.60;;;;;;7360643;19;20006;-65
2022/04/30 11:58:06;;;;;;;7.90;5.65;;;11.20;32.10;;;;;;7359099;19;20054;-65
2022/04/30 12:00:56;;;;;;;6.47;5.82;;;11.40;30.80;;;;;;7360306;19;20118;-64
2022/04/30 12:03:31;;;;;;;7.53;5.38;;;11.40;30.80;;;;;;7360993;19;20010;-63
2022/04/30 12:06:02;;;;;;;7.10;6.20;;;11.20;29.70;;;;;;7359730;19;20131;-65
2022/04/30 12:08:33;;;;;;;8.35;5.70;;;11.50;34.10;;;;;;7358316;19;20011;-65
2022/04/30 12:11:04;;;;;;;6.32;5.72;;;11.80;28.10;;;;;;7378880;19;20074;-65
2022/04/30 12:13:34;;;;;;;6.95;5.50;;;11.60;30.70;;;;;;7359878;19;20494;-65
2022/04/30 12:16:05;;;;;;;5.75;5.20;;;11.70;27.80;;;;;;7361132;19;20011;-64
2022/04/30 12:26:55;;;;;;;6.20;5.25;;;12.10;25.50;;;;;;7368820;19;20099;-65
2022/04/30 12:29:26;;;;;;;7.45;5.55;;;12.00;24.00;;;;;;7361911;19;20011;-66
2022/04/30 12:32:00;;;;;;;6.50;5.60;;;11.80;25.70;;;;;;7388697;19;20340;-64
2022/04/30 12:34:39;;;;;;;6.80;6.10;;;12.00;25.50;;;;;;7363900;19;20463;-64
2022/04/30 12:37:10;;;;;;;7.18;6.30;;;11.80;25.00;;;;;;7366889;19;20528;-64
2022/04/30 12:39:42;;;;;;;9.20;8.30;;;11.30;26.40;;;;;;7360130;19;20019;-63
2022/04/30 12:42:13;;;;;;;9.55;8.00;;;11.30;27.30;;;;;;7365954;19;20006;-64
2022/04/30 12:44:43;;;;;;;9.50;8.50;;;11.10;30.00;;;;;;7364855;19;20017;-66
2022/04/30 12:47:13;;;;;;;10.20;8.93;;;11.00;31.40;;;;;;7387639;19;20346;-64
2022/04/30 12:49:45;;;;;;;9.75;8.75;;;11.00;32.00;;;;;;7358852;19;20030;-65
2022/04/30 12:52:16;;;;;;;10.57;8.68;;;11.10;31.80;;;;;;7362738;19;20517;-64
2022/04/30 12:54:46;;;;;;;10.40;8.95;;;11.20;27.50;;;;;;7365781;19;20014;-64
2022/04/30 12:57:16;;;;;;;9.82;8.63;;;11.10;29.40;;;;;;7366420;19;20014;-64
2022/04/30 12:59:46;;;;;;;11.18;8.90;;;10.70;29.30;;;;;;7360722;19;20454;-65
2022/04/30 13:02:17;;;;;;;10.88;9.43;;;10.90;32.50;;;;;;7365589;19;20018;-65
2022/04/30 13:04:50;;;;;;;13.93;10.52;;;10.80;30.80;;;;;;7386409;19;20077;-64
2022/04/30 13:07:20;;;;;;;12.27;9.52;;;11.00;30.50;;;;;;7366058;19;20031;-64
2022/04/30 13:15:15;;;;;;;14.10;11.10;;;10.70;27.40;;;;;;7365477;19;20015;-64
2022/04/30 13:17:45;;;;;;;16.48;12.43;;;11.10;28.40;;;;;;7362050;19;20015;-64
2022/04/30 13:20:18;;;;;;;18.30;11.98;;;10.60;28.50;;;;;;7378728;19;20348;-65
2022/04/30 13:22:49;;;;;;;16.33;13.57;;;10.50;30.10;;;;;;7387323;19;20011;-65
2022/04/30 13:25:19;;;;;;;17.40;14.02;;;10.50;31.00;;;;;;7363338;19;20028;-63
2022/04/30 13:27:49;;;;;;;18.15;14.65;;;10.60;30.30;;;;;;7364371;19;20082;-63
2022/04/30 13:30:19;;;;;;;19.58;14.65;;;10.80;29.40;;;;;;7361691;19;20043;-62
2022/04/30 13:32:50;;;;;;;18.05;14.90;;;10.60;28.70;;;;;;7364838;19;20126;-64
2022/04/30 13:35:22;;;;;;;18.65;14.07;;;10.70;29.40;;;;;;7361065;19;20074;-64
2022/04/30 13:37:54;;;;;;;19.58;14.45;;;10.70;28.20;;;;;;7384237;19;20018;-63
2022/04/30 13:40:24;;;;;;;17.33;13.63;;;11.00;27.90;;;;;;7360761;19;20015;-64